createdAt,value
2019-04-16T00:00:00.464Z,9.72
2019-04-16T00:01:00.511Z,9.58
2019-04-16T00:02:00.266Z,9.55
2019-04-16T00:03:00.247Z,9.54
2019-04-16T00:04:00.253Z,9.58
2019-04-16T00:05:00.222Z,9.48
2019-04-16T00:06:00.213Z,9.46
2019-04-16T00:07:00.201Z,9.48
2019-04-16T00:08:00.203Z,9.40
2019-04-16T00:09:00.201Z,9.43
2019-04-16T00:10:00.170Z,9.50
2019-04-16T00:11:00.160Z,9.46
2019-04-16T00:12:00.147Z,9.40
2019-04-16T00:13:00.138Z,9.40
2019-04-16T00:14:02.974Z,9.41
2019-04-16T00:15:00.128Z,9.41
2019-04-16T00:16:00.119Z,9.41
2019-04-16T00:17:00.096Z,9.47
2019-04-16T00:18:00.152Z,9.37
2019-04-16T00:19:04.154Z,9.43
2019-04-16T00:20:05.833Z,9.41
2019-04-16T00:21:01.064Z,9.29
2019-04-16T00:22:00.041Z,9.29
2019-04-16T00:23:00.025Z,9.28
2019-04-16T00:24:00.014Z,9.31
2019-04-16T00:25:00.006Z,9.31
2019-04-16T00:26:00.026Z,9.31
2019-04-16T00:27:00.102Z,9.31
2019-04-16T00:28:00.876Z,9.25
2019-04-16T00:29:02.346Z,9.19
2019-04-16T00:30:03.923Z,9.22
2019-04-16T00:31:01.041Z,9.13
2019-04-16T00:31:59.983Z,9.19
2019-04-16T00:32:59.917Z,9.02
2019-04-16T00:33:59.905Z,9.00
2019-04-16T00:34:59.898Z,9.11
2019-04-16T00:35:59.883Z,8.94
2019-04-16T00:36:59.878Z,8.91
2019-04-16T00:37:59.887Z,8.88
2019-04-16T00:38:59.850Z,8.85
2019-04-16T00:39:59.838Z,8.88
2019-04-16T00:41:01.328Z,8.88
2019-04-16T00:41:59.819Z,8.85
2019-04-16T00:42:59.815Z,8.87
2019-04-16T00:43:59.839Z,8.87
2019-04-16T00:44:59.787Z,8.84
2019-04-16T00:45:59.774Z,8.76
2019-04-16T00:46:59.763Z,8.81
2019-04-16T00:47:59.769Z,8.82
2019-04-16T00:48:59.739Z,8.79
2019-04-16T00:50:00.101Z,8.82
2019-04-16T00:50:59.889Z,8.82
2019-04-16T00:51:59.895Z,8.79
2019-04-16T00:52:59.892Z,8.76
2019-04-16T00:53:59.688Z,8.84
2019-04-16T00:54:59.689Z,8.74
2019-04-16T00:55:59.672Z,8.81
2019-04-16T00:56:59.653Z,8.71
2019-04-16T00:57:59.641Z,8.67
2019-04-16T00:58:59.631Z,8.69
2019-04-16T00:59:59.634Z,8.74
2019-04-16T01:00:59.657Z,8.67
2019-04-16T01:01:59.624Z,8.69
2019-04-16T01:02:59.587Z,8.67
2019-04-16T01:03:59.580Z,8.61
2019-04-16T01:04:59.567Z,8.67
2019-04-16T01:05:59.564Z,8.64
2019-04-16T01:06:59.543Z,8.67
2019-04-16T01:07:59.555Z,8.60
2019-04-16T01:08:59.522Z,8.66
2019-04-16T01:09:59.509Z,8.67
2019-04-16T01:10:59.502Z,8.61
2019-04-16T01:11:59.510Z,8.64
2019-04-16T01:12:59.500Z,8.61
2019-04-16T01:13:59.467Z,8.58
2019-04-16T01:15:00.946Z,8.58
2019-04-16T01:16:02.467Z,8.61
2019-04-16T01:17:04.059Z,8.67
2019-04-16T01:18:00.442Z,8.64
2019-04-16T01:18:59.415Z,8.70
2019-04-16T01:19:59.418Z,8.66
2019-04-16T01:20:59.389Z,8.71
2019-04-16T01:21:59.377Z,8.66
2019-04-16T01:22:59.369Z,8.69
2019-04-16T01:23:59.369Z,8.70
2019-04-16T01:24:59.344Z,8.64
2019-04-16T01:25:59.383Z,8.69
2019-04-16T01:26:59.503Z,8.64
2019-04-16T01:28:00.791Z,8.69
2019-04-16T01:29:02.946Z,8.71
2019-04-16T01:29:59.574Z,8.69
2019-04-16T01:30:59.287Z,8.63
2019-04-16T01:31:59.283Z,8.64
2019-04-16T01:32:59.270Z,8.64
2019-04-16T01:33:59.264Z,8.66
2019-04-16T01:34:59.238Z,8.67
2019-04-16T01:35:59.225Z,8.67
2019-04-16T01:36:59.215Z,8.58
2019-04-16T01:37:59.209Z,8.67
2019-04-16T01:39:14.772Z,8.66
2019-04-16T01:40:00.193Z,8.64
2019-04-16T01:40:59.169Z,8.56
2019-04-16T01:41:59.166Z,8.46
2019-04-16T01:42:59.151Z,8.41
2019-04-16T01:43:59.176Z,8.31
2019-04-16T01:45:00.364Z,8.37
2019-04-16T01:46:01.438Z,8.37
2019-04-16T01:47:03.356Z,8.27
2019-04-16T01:48:00.232Z,8.28
2019-04-16T01:48:59.083Z,8.19
2019-04-16T01:49:59.313Z,8.27
2019-04-16T01:50:59.251Z,8.34
2019-04-16T01:51:59.273Z,8.28
2019-04-16T01:52:59.040Z,8.28
2019-04-16T01:53:59.029Z,8.36
2019-04-16T01:54:59.015Z,8.20
2019-04-16T01:55:59.012Z,8.28
2019-04-16T01:56:59.909Z,8.18
2019-04-16T01:57:59.660Z,8.24
2019-04-16T01:58:58.972Z,8.23
2019-04-16T01:59:58.961Z,8.33
2019-04-16T02:00:58.950Z,8.26
2019-04-16T02:01:58.964Z,8.33
2019-04-16T02:02:58.940Z,8.36
2019-04-16T02:03:59.036Z,8.37
2019-04-16T02:04:59.009Z,8.36
2019-04-16T02:05:59.183Z,8.37
2019-04-16T02:06:59.091Z,8.31
2019-04-16T02:07:59.918Z,8.30
2019-04-16T02:09:01.774Z,8.28
2019-04-16T02:09:58.853Z,8.31
2019-04-16T02:10:58.841Z,8.24
2019-04-16T02:11:58.832Z,8.24
2019-04-16T02:12:58.836Z,8.30
2019-04-16T02:13:58.827Z,8.24
2019-04-16T02:14:58.797Z,8.20
2019-04-16T02:15:58.786Z,8.26
2019-04-16T02:16:58.777Z,8.31
2019-04-16T02:17:59.566Z,8.31
2019-04-16T02:19:01.267Z,8.19
2019-04-16T02:20:02.114Z,8.26
2019-04-16T02:20:59.938Z,8.30
2019-04-16T02:21:58.720Z,8.19
2019-04-16T02:22:58.720Z,8.24
2019-04-16T02:23:58.698Z,8.24
2019-04-16T02:24:58.698Z,8.20
2019-04-16T02:25:58.689Z,8.13
2019-04-16T02:26:58.666Z,8.18
2019-04-16T02:27:58.654Z,8.18
2019-04-16T02:28:59.074Z,8.16
2019-04-16T02:30:02.926Z,8.24
2019-04-16T02:30:59.648Z,8.20
2019-04-16T02:31:58.623Z,8.13
2019-04-16T02:32:58.613Z,8.16
2019-04-16T02:33:58.590Z,8.16
2019-04-16T02:34:58.581Z,8.24
2019-04-16T02:35:58.585Z,8.16
2019-04-16T02:37:02.460Z,8.12
2019-04-16T02:37:58.574Z,8.09
2019-04-16T02:38:58.541Z,8.08
2019-04-16T02:39:58.522Z,8.16
2019-04-16T02:40:58.513Z,8.20
2019-04-16T02:41:58.734Z,8.24
2019-04-16T02:43:04.179Z,8.19
2019-04-16T02:43:59.490Z,8.23
2019-04-16T02:44:58.485Z,8.20
2019-04-16T02:45:58.819Z,8.19
2019-04-16T02:47:05.423Z,8.06
2019-04-16T02:47:59.443Z,8.08
2019-04-16T02:48:58.429Z,7.98
2019-04-16T02:49:58.425Z,7.97
2019-04-16T02:51:05.485Z,7.91
2019-04-16T02:51:59.401Z,7.83
2019-04-16T02:52:58.398Z,7.80
2019-04-16T02:53:59.855Z,7.72
2019-04-16T02:54:58.363Z,7.73
2019-04-16T02:55:58.361Z,7.56
2019-04-16T02:56:58.336Z,7.58
2019-04-16T02:58:00.067Z,7.56
2019-04-16T02:58:58.328Z,7.56
2019-04-16T02:59:58.310Z,7.43
2019-04-16T03:00:58.295Z,7.36
2019-04-16T03:01:58.288Z,7.42
2019-04-16T03:02:58.269Z,7.33
2019-04-16T03:03:58.285Z,7.38
2019-04-16T03:04:58.955Z,7.40
2019-04-16T03:06:00.686Z,7.32
2019-04-16T03:07:02.708Z,7.29
2019-04-16T03:08:01.494Z,7.24
2019-04-16T03:08:58.202Z,7.31
2019-04-16T03:10:01.452Z,7.33
2019-04-16T03:10:58.180Z,7.14
2019-04-16T03:11:58.171Z,7.14
2019-04-16T03:12:58.158Z,7.18
2019-04-16T03:13:59.314Z,7.21
2019-04-16T03:15:00.840Z,7.13
2019-04-16T03:15:58.137Z,7.13
2019-04-16T03:16:58.117Z,7.06
2019-04-16T03:17:58.107Z,7.00
2019-04-16T03:18:58.095Z,7.02
2019-04-16T03:19:58.101Z,7.06
2019-04-16T03:20:58.086Z,6.96
2019-04-16T03:21:59.134Z,6.84
2019-04-16T03:22:58.050Z,6.87
2019-04-16T03:23:58.038Z,6.84
2019-04-16T03:24:58.029Z,6.81
2019-04-16T03:25:58.025Z,6.77
2019-04-16T03:26:58.029Z,6.77
2019-04-16T03:27:57.993Z,6.70
2019-04-16T03:28:59.122Z,6.69
2019-04-16T03:30:02.850Z,6.69
2019-04-16T03:30:58.961Z,6.57
2019-04-16T03:31:59.554Z,6.46
2019-04-16T03:32:57.941Z,6.41
2019-04-16T03:33:57.945Z,6.33
2019-04-16T03:34:57.918Z,6.38
2019-04-16T03:35:58.600Z,6.35
2019-04-16T03:36:58.592Z,6.31
2019-04-16T03:37:57.918Z,6.36
2019-04-16T03:38:57.874Z,6.31
2019-04-16T03:39:57.866Z,6.27
2019-04-16T03:40:57.852Z,6.24
2019-04-16T03:41:57.839Z,6.24
2019-04-16T03:42:59.316Z,6.24
2019-04-16T03:43:57.849Z,6.27
2019-04-16T03:44:57.807Z,6.19
2019-04-16T03:45:57.794Z,6.24
2019-04-16T03:46:57.785Z,6.12
2019-04-16T03:47:57.772Z,6.14
2019-04-16T03:48:57.778Z,6.17
2019-04-16T03:49:59.449Z,6.14
2019-04-16T03:51:00.567Z,6.14
2019-04-16T03:51:58.726Z,6.16
2019-04-16T03:52:57.737Z,6.07
2019-04-16T03:53:57.705Z,6.11
2019-04-16T03:54:57.699Z,6.05
2019-04-16T03:55:58.322Z,5.99
2019-04-16T03:57:01.873Z,5.98
2019-04-16T03:57:58.675Z,6.02
2019-04-16T03:58:57.670Z,5.99
2019-04-16T04:00:00.658Z,6.05
2019-04-16T04:00:57.629Z,5.91
2019-04-16T04:01:57.636Z,5.98
2019-04-16T04:02:57.606Z,5.84
2019-04-16T04:03:58.420Z,5.86
2019-04-16T04:05:01.067Z,5.79
2019-04-16T04:05:58.573Z,5.71
2019-04-16T04:06:57.563Z,5.79
2019-04-16T04:07:57.583Z,5.75
2019-04-16T04:08:57.539Z,5.76
2019-04-16T04:09:58.842Z,5.76
2019-04-16T04:10:57.518Z,5.75
2019-04-16T04:11:57.524Z,5.68
2019-04-16T04:12:57.497Z,5.71
2019-04-16T04:13:57.492Z,5.71
2019-04-16T04:14:57.474Z,5.69
2019-04-16T04:15:58.653Z,5.83
2019-04-16T04:16:57.485Z,5.82
2019-04-16T04:17:57.464Z,5.69
2019-04-16T04:18:57.429Z,5.75
2019-04-16T04:19:57.425Z,5.68
2019-04-16T04:20:57.409Z,5.75
2019-04-16T04:21:57.401Z,5.75
2019-04-16T04:22:57.913Z,5.71
2019-04-16T04:23:59.756Z,5.71
2019-04-16T04:24:57.366Z,5.73
2019-04-16T04:25:57.360Z,5.73
2019-04-16T04:26:57.340Z,5.75
2019-04-16T04:27:57.336Z,5.82
2019-04-16T04:28:57.335Z,5.80
2019-04-16T04:29:57.444Z,5.71
2019-04-16T04:30:57.691Z,5.72
2019-04-16T04:31:57.289Z,5.76
2019-04-16T04:32:57.304Z,5.68
2019-04-16T04:33:57.262Z,5.65
2019-04-16T04:34:57.283Z,5.61
2019-04-16T04:35:57.245Z,5.56
2019-04-16T04:36:59.737Z,5.57
2019-04-16T04:37:57.224Z,5.65
2019-04-16T04:38:57.242Z,5.75
2019-04-16T04:39:57.199Z,5.73
2019-04-16T04:40:59.671Z,5.71
2019-04-16T04:41:57.319Z,5.76
2019-04-16T04:42:57.755Z,5.82
2019-04-16T04:43:57.156Z,5.69
2019-04-16T04:44:57.148Z,5.68
2019-04-16T04:45:57.134Z,5.68
2019-04-16T04:46:57.139Z,5.65
2019-04-16T04:47:57.111Z,5.59
2019-04-16T04:49:00.052Z,5.69
2019-04-16T04:49:59.496Z,5.59
2019-04-16T04:50:58.087Z,5.59
2019-04-16T04:51:57.065Z,5.61
2019-04-16T04:52:57.072Z,5.61
2019-04-16T04:53:57.046Z,5.56
2019-04-16T04:54:57.031Z,5.61
2019-04-16T04:55:57.272Z,5.54
2019-04-16T04:56:59.335Z,5.53
2019-04-16T04:57:57.000Z,5.51
2019-04-16T04:58:57.008Z,5.56
2019-04-16T04:59:56.977Z,5.47
2019-04-16T05:00:56.965Z,5.39
2019-04-16T05:01:56.953Z,5.43
2019-04-16T05:02:56.945Z,5.43
2019-04-16T05:03:56.932Z,5.41
2019-04-16T05:04:56.933Z,5.38
2019-04-16T05:05:56.909Z,5.46
2019-04-16T05:06:57.236Z,5.48
2019-04-16T05:07:59.664Z,5.43
2019-04-16T05:08:57.666Z,5.41
2019-04-16T05:09:56.885Z,5.35
2019-04-16T05:10:59.793Z,5.33
2019-04-16T05:11:57.842Z,5.46
2019-04-16T05:12:56.834Z,5.51
2019-04-16T05:13:57.125Z,5.62
2019-04-16T05:14:58.407Z,5.61
2019-04-16T05:15:58.322Z,5.53
2019-04-16T05:16:56.803Z,5.59
2019-04-16T05:17:56.778Z,5.53
2019-04-16T05:18:56.765Z,5.71
2019-04-16T05:19:56.754Z,5.62
2019-04-16T05:20:56.757Z,5.72
2019-04-16T05:21:56.743Z,5.64
2019-04-16T05:22:58.060Z,5.71
2019-04-16T05:23:57.558Z,5.75
2019-04-16T05:25:01.050Z,5.68
2019-04-16T05:25:56.688Z,5.71
2019-04-16T05:26:56.692Z,5.73
2019-04-16T05:27:56.666Z,5.69
2019-04-16T05:28:56.669Z,5.79
2019-04-16T05:29:56.643Z,5.89
2019-04-16T05:30:56.637Z,5.99
2019-04-16T05:31:57.349Z,6.01
2019-04-16T05:32:56.622Z,6.05
2019-04-16T05:34:01.912Z,6.07
2019-04-16T05:34:57.600Z,6.09
2019-04-16T05:35:59.338Z,6.17
2019-04-16T05:36:56.573Z,6.20
2019-04-16T05:37:56.555Z,6.27
2019-04-16T05:38:56.569Z,6.41
2019-04-16T05:39:58.818Z,6.38
2019-04-16T05:40:56.525Z,6.38
2019-04-16T05:41:56.513Z,6.39
2019-04-16T05:42:58.974Z,6.49
2019-04-16T05:43:58.457Z,6.51
2019-04-16T05:44:56.486Z,6.45
2019-04-16T05:45:56.489Z,6.44
2019-04-16T05:46:56.457Z,6.57
2019-04-16T05:47:56.444Z,6.54
2019-04-16T05:48:56.442Z,6.63
2019-04-16T05:49:57.969Z,6.66
2019-04-16T05:50:59.756Z,6.72
2019-04-16T05:51:56.415Z,6.79
2019-04-16T05:52:56.389Z,6.87
2019-04-16T05:53:56.378Z,6.93
2019-04-16T05:54:56.367Z,7.00
2019-04-16T05:55:57.474Z,7.02
2019-04-16T05:56:56.378Z,7.15
2019-04-16T05:57:58.200Z,7.23
2019-04-16T05:58:56.324Z,7.39
2019-04-16T05:59:56.311Z,7.40
2019-04-16T06:00:56.301Z,7.43
2019-04-16T06:01:57.535Z,7.42
2019-04-16T06:02:56.300Z,7.63
2019-04-16T06:03:56.268Z,7.69
2019-04-16T06:04:56.552Z,7.61
2019-04-16T06:05:58.911Z,7.73
2019-04-16T06:06:56.236Z,7.69
2019-04-16T06:07:56.223Z,7.66
2019-04-16T06:08:56.240Z,7.54
2019-04-16T06:09:56.201Z,7.58
2019-04-16T06:10:57.646Z,7.61
2019-04-16T06:11:56.178Z,7.72
2019-04-16T06:12:56.167Z,7.82
2019-04-16T06:13:56.159Z,7.83
2019-04-16T06:14:56.178Z,8.08
2019-04-16T06:15:56.135Z,8.03
2019-04-16T06:16:56.798Z,8.12
2019-04-16T06:17:56.113Z,8.01
2019-04-16T06:18:56.115Z,8.09
2019-04-16T06:19:56.102Z,8.24
2019-04-16T06:20:56.087Z,8.26
2019-04-16T06:21:56.661Z,8.27
2019-04-16T06:23:00.613Z,8.46
2019-04-16T06:23:57.046Z,8.53
2019-04-16T06:24:56.037Z,8.79
2019-04-16T06:25:56.036Z,8.95
2019-04-16T06:26:56.028Z,8.91
2019-04-16T06:27:56.002Z,9.08
2019-04-16T06:28:59.725Z,9.28
2019-04-16T06:29:57.572Z,9.37
2019-04-16T06:30:56.986Z,9.59
2019-04-16T06:31:55.961Z,9.83
2019-04-16T06:32:55.983Z,9.80
2019-04-16T06:33:55.939Z,9.55
2019-04-16T06:34:55.927Z,9.64
2019-04-16T06:35:55.920Z,9.64
2019-04-16T06:36:55.915Z,9.54
2019-04-16T06:37:55.895Z,9.54
2019-04-16T06:38:57.659Z,9.58
2019-04-16T06:40:00.627Z,9.59
2019-04-16T06:40:56.858Z,9.56
2019-04-16T06:41:55.863Z,9.76
2019-04-16T06:42:55.842Z,9.92
2019-04-16T06:43:59.257Z,10.09
2019-04-16T06:44:55.828Z,10.13
2019-04-16T06:45:55.804Z,10.28
2019-04-16T06:46:55.794Z,10.23
2019-04-16T06:47:55.796Z,10.23
2019-04-16T06:48:55.772Z,10.16
2019-04-16T06:49:55.760Z,10.07
2019-04-16T06:50:55.779Z,10.07
2019-04-16T06:51:55.740Z,10.15
2019-04-16T06:52:55.738Z,10.35
2019-04-16T06:53:56.808Z,10.33
2019-04-16T06:54:55.704Z,10.25
2019-04-16T06:55:55.695Z,10.12
2019-04-16T06:56:55.734Z,9.95
2019-04-16T06:57:55.675Z,10.01
2019-04-16T06:58:57.431Z,10.19
2019-04-16T06:59:55.649Z,10.16
2019-04-16T07:00:55.636Z,10.22
2019-04-16T07:01:55.626Z,10.34
2019-04-16T07:03:02.114Z,10.31
2019-04-16T07:03:59.577Z,10.46
2019-04-16T07:04:58.322Z,10.41
2019-04-16T07:05:56.582Z,10.51
2019-04-16T07:06:55.571Z,10.59
2019-04-16T07:07:55.558Z,10.74
2019-04-16T07:08:55.610Z,10.69
2019-04-16T07:09:57.020Z,10.57
2019-04-16T07:10:55.527Z,10.44
2019-04-16T07:11:55.514Z,10.37
2019-04-16T07:12:55.629Z,10.26
2019-04-16T07:13:55.493Z,10.23
2019-04-16T07:14:55.510Z,10.13
2019-04-16T07:15:56.974Z,10.25
2019-04-16T07:16:59.784Z,10.25
2019-04-16T07:19:11.291Z,10.17
2019-04-16T07:20:13.066Z,10.31
2019-04-16T07:21:09.232Z,10.34
2019-04-16T07:22:09.200Z,10.40
2019-04-16T07:23:09.202Z,10.37
2019-04-16T07:24:09.301Z,10.16
2019-04-16T07:25:09.311Z,10.20
2019-04-16T07:26:13.630Z,10.17
2019-04-16T07:27:10.279Z,10.23
2019-04-16T07:28:09.147Z,10.26
2019-04-16T07:29:09.269Z,10.31
2019-04-16T07:30:09.466Z,10.38
2019-04-16T07:31:13.265Z,10.35
2019-04-16T07:32:10.138Z,10.46
2019-04-16T07:33:09.112Z,10.53
2019-04-16T07:34:09.085Z,10.68
2019-04-16T07:35:09.103Z,10.60
2019-04-16T07:36:09.042Z,10.60
2019-04-16T07:37:09.051Z,10.72
2019-04-16T07:38:11.492Z,10.69
2019-04-16T07:39:09.030Z,10.64
2019-04-16T07:40:10.425Z,10.68
2019-04-16T07:41:12.153Z,10.69
2019-04-16T07:42:11.350Z,10.72
2019-04-16T07:43:09.995Z,10.64
2019-04-16T07:44:10.986Z,10.57
2019-04-16T07:45:12.522Z,10.56
2019-04-16T07:46:09.076Z,10.42
2019-04-16T07:47:08.951Z,10.41
2019-04-16T07:48:08.918Z,10.51
2019-04-16T07:49:08.913Z,10.56
2019-04-16T07:50:08.885Z,10.78
2019-04-16T07:51:08.908Z,10.78
2019-04-16T07:52:11.914Z,10.81
2019-04-16T07:53:13.503Z,10.97
2019-04-16T07:54:09.844Z,11.05
2019-04-16T07:55:08.833Z,11.18
2019-04-16T07:56:08.855Z,11.25
2019-04-16T07:57:09.110Z,11.40
2019-04-16T07:58:08.820Z,11.29
2019-04-16T07:59:08.845Z,11.40
2019-04-16T08:00:09.808Z,11.45
2019-04-16T08:01:12.226Z,11.48
2019-04-16T08:02:09.765Z,11.51
2019-04-16T08:03:08.799Z,11.62
2019-04-16T08:04:08.728Z,11.69
2019-04-16T08:05:09.768Z,11.60
2019-04-16T08:06:13.047Z,11.51
2019-04-16T08:07:08.750Z,11.57
2019-04-16T08:08:08.829Z,11.68
2019-04-16T08:09:08.729Z,11.75
2019-04-16T08:10:08.662Z,12.03
2019-04-16T08:11:08.698Z,12.03
2019-04-16T08:12:22.043Z,12.09
2019-04-16T08:13:09.627Z,12.07
2019-04-16T08:14:09.979Z,12.06
2019-04-16T08:15:14.817Z,12.21
2019-04-16T08:16:09.596Z,12.15
2019-04-16T08:17:08.592Z,12.35
2019-04-16T08:18:08.572Z,12.49
2019-04-16T08:19:08.613Z,12.58
2019-04-16T08:20:08.552Z,12.54
2019-04-16T08:21:12.114Z,12.67
2019-04-16T08:22:08.743Z,12.65
2019-04-16T08:23:08.518Z,12.68
2019-04-16T08:24:08.502Z,12.86
2019-04-16T08:25:08.544Z,13.00
2019-04-16T08:26:12.976Z,13.22
2019-04-16T08:27:10.773Z,13.31
2019-04-16T08:28:08.457Z,13.53
2019-04-16T08:29:08.462Z,13.67
2019-04-16T08:30:08.436Z,13.44
2019-04-16T08:31:12.199Z,13.22
2019-04-16T08:32:08.413Z,13.38
2019-04-16T08:33:10.649Z,13.41
2019-04-16T08:34:08.388Z,13.46
2019-04-16T08:35:08.391Z,13.39
2019-04-16T08:36:08.379Z,13.49
2019-04-16T08:37:08.803Z,13.39
2019-04-16T08:38:08.346Z,13.33
2019-04-16T08:39:08.349Z,13.39
2019-04-16T08:40:08.858Z,13.70
2019-04-16T08:41:08.324Z,13.89
2019-04-16T08:42:08.297Z,14.11
2019-04-16T08:43:08.321Z,14.25
2019-04-16T08:44:10.342Z,14.37
2019-04-16T08:45:08.972Z,14.37
2019-04-16T08:46:11.027Z,14.47
2019-04-16T08:47:11.576Z,14.53
2019-04-16T08:48:18.372Z,14.72
2019-04-16T08:49:08.218Z,14.60
2019-04-16T08:50:11.394Z,14.68
2019-04-16T08:51:08.284Z,14.60
2019-04-16T08:52:10.212Z,14.65
2019-04-16T08:53:13.259Z,14.77
2019-04-16T08:54:09.324Z,14.89
2019-04-16T08:55:08.152Z,14.99
2019-04-16T08:56:08.143Z,14.99
2019-04-16T08:57:08.425Z,14.88
2019-04-16T08:58:08.126Z,14.84
2019-04-16T08:59:10.058Z,15.00
2019-04-16T09:00:08.129Z,15.09
2019-04-16T09:01:08.096Z,15.24
2019-04-16T09:02:08.078Z,15.36
2019-04-16T09:03:08.084Z,15.33
2019-04-16T09:04:08.054Z,15.27
2019-04-16T09:05:11.333Z,15.22
2019-04-16T09:06:12.811Z,14.99
2019-04-16T09:07:12.062Z,15.18
2019-04-16T09:08:13.412Z,15.25
2019-04-16T09:09:13.534Z,15.36
2019-04-16T09:10:17.587Z,15.35
2019-04-16T09:11:21.811Z,15.42
2019-04-16T09:12:09.756Z,15.31
2019-04-16T09:13:07.981Z,15.43
2019-04-16T09:14:07.945Z,15.39
2019-04-16T09:15:07.945Z,15.51
2019-04-16T09:16:10.600Z,15.58
2019-04-16T09:17:09.737Z,15.47
2019-04-16T09:18:07.896Z,15.57
2019-04-16T09:19:07.885Z,15.61
2019-04-16T09:20:07.874Z,15.77
2019-04-16T09:21:10.290Z,15.65
2019-04-16T09:22:07.851Z,15.72
2019-04-16T09:23:07.855Z,15.68
2019-04-16T09:24:09.437Z,15.67
2019-04-16T09:25:12.504Z,15.65
2019-04-16T09:26:14.351Z,15.72
2019-04-16T09:27:12.166Z,15.88
2019-04-16T09:28:17.671Z,15.97
2019-04-16T09:29:10.353Z,16.16
2019-04-16T09:30:10.384Z,16.13
2019-04-16T09:31:08.765Z,16.21
2019-04-16T09:32:07.753Z,16.32
2019-04-16T09:33:07.742Z,16.41
2019-04-16T09:34:07.741Z,16.46
2019-04-16T09:35:10.427Z,16.47
2019-04-16T09:36:07.700Z,16.42
2019-04-16T09:37:07.712Z,16.35
2019-04-16T09:38:09.356Z,16.49
2019-04-16T09:39:07.793Z,16.54
2019-04-16T09:40:16.498Z,16.41
2019-04-16T09:41:08.668Z,16.32
2019-04-16T09:42:07.637Z,16.21
2019-04-16T09:43:16.708Z,15.98
2019-04-16T09:44:08.618Z,16.00
2019-04-16T09:45:07.593Z,16.09
2019-04-16T09:46:10.567Z,16.15
2019-04-16T09:47:08.571Z,16.29
2019-04-16T09:48:07.585Z,16.47
2019-04-16T09:49:07.559Z,16.47
2019-04-16T09:50:11.071Z,16.42
2019-04-16T09:51:07.543Z,16.31
2019-04-16T09:52:07.515Z,16.38
2019-04-16T09:53:07.534Z,16.39
2019-04-16T09:54:12.634Z,16.49
2019-04-16T09:55:08.554Z,16.32
2019-04-16T09:56:07.481Z,16.43
2019-04-16T09:57:07.460Z,16.57
2019-04-16T09:58:07.460Z,16.65
2019-04-16T09:59:07.456Z,16.57
2019-04-16T10:00:08.438Z,16.46
2019-04-16T10:01:07.427Z,16.72
2019-04-16T10:02:07.406Z,16.68
2019-04-16T10:03:07.390Z,16.81
2019-04-16T10:04:07.396Z,16.86
2019-04-16T10:05:07.389Z,16.64
2019-04-16T10:06:07.359Z,16.83
2019-04-16T10:07:07.361Z,16.76
2019-04-16T10:08:09.651Z,16.60
2019-04-16T10:09:08.339Z,16.68
2019-04-16T10:10:07.338Z,16.64
2019-04-16T10:11:07.304Z,16.53
2019-04-16T10:12:08.463Z,16.74
2019-04-16T10:13:07.284Z,16.86
2019-04-16T10:14:07.276Z,17.05
2019-04-16T10:15:07.305Z,17.30
2019-04-16T10:16:07.249Z,17.42
2019-04-16T10:17:07.258Z,17.59
2019-04-16T10:18:07.244Z,17.51
2019-04-16T10:19:08.406Z,17.56
2019-04-16T10:20:07.239Z,17.36
2019-04-16T10:21:07.198Z,17.31
2019-04-16T10:22:07.199Z,17.24
2019-04-16T10:23:07.183Z,17.20
2019-04-16T10:24:07.204Z,17.30
2019-04-16T10:25:07.146Z,17.06
2019-04-16T10:26:07.167Z,17.04
2019-04-16T10:27:07.134Z,17.20
2019-04-16T10:28:07.105Z,17.39
2019-04-16T10:29:07.100Z,17.51
2019-04-16T10:30:07.087Z,17.70
2019-04-16T10:31:07.072Z,17.78
2019-04-16T10:32:07.086Z,17.80
2019-04-16T10:33:07.065Z,17.76
2019-04-16T10:34:07.045Z,17.63
2019-04-16T10:35:07.065Z,17.79
2019-04-16T10:36:07.019Z,17.83
2019-04-16T10:37:07.045Z,17.82
2019-04-16T10:38:06.993Z,17.82
2019-04-16T10:39:07.063Z,17.86
2019-04-16T10:40:06.990Z,17.94
2019-04-16T10:41:07.000Z,17.98
2019-04-16T10:42:06.978Z,17.86
2019-04-16T10:43:06.939Z,17.67
2019-04-16T10:44:06.930Z,17.65
2019-04-16T10:45:06.959Z,17.68
2019-04-16T10:46:09.702Z,17.72
2019-04-16T10:47:06.900Z,17.79
2019-04-16T10:48:06.912Z,17.83
2019-04-16T10:49:06.869Z,17.80
2019-04-16T10:50:06.861Z,17.98
2019-04-16T10:51:06.848Z,17.97
2019-04-16T10:52:06.859Z,17.87
2019-04-16T10:53:06.852Z,17.65
2019-04-16T10:54:06.812Z,17.78
2019-04-16T10:55:09.298Z,17.89
2019-04-16T10:56:07.808Z,18.10
2019-04-16T10:57:10.120Z,18.10
2019-04-16T10:58:06.790Z,18.22
2019-04-16T10:59:06.774Z,18.38
2019-04-16T11:00:06.770Z,18.50
2019-04-16T11:01:06.987Z,18.44
2019-04-16T11:02:09.682Z,18.07
2019-04-16T11:03:06.732Z,18.26
2019-04-16T11:04:07.871Z,18.05
2019-04-16T11:05:06.720Z,18.07
2019-04-16T11:06:06.689Z,17.72
2019-04-16T11:07:06.688Z,17.76
2019-04-16T11:08:07.470Z,17.71
2019-04-16T11:09:06.669Z,17.76
2019-04-16T11:10:06.637Z,17.71
2019-04-16T11:11:06.643Z,17.60
2019-04-16T11:12:06.615Z,17.60
2019-04-16T11:13:06.615Z,17.63
2019-04-16T11:14:06.661Z,17.76
2019-04-16T11:15:06.633Z,17.94
2019-04-16T11:16:06.581Z,18.00
2019-04-16T11:17:06.580Z,18.23
2019-04-16T11:18:06.553Z,18.20
2019-04-16T11:19:06.552Z,18.35
2019-04-16T11:20:06.553Z,18.33
2019-04-16T11:21:06.547Z,18.19
2019-04-16T11:22:06.514Z,18.15
2019-04-16T11:23:07.585Z,18.11
2019-04-16T11:24:06.491Z,18.10
2019-04-16T11:25:06.506Z,18.15
2019-04-16T11:26:06.453Z,18.22
2019-04-16T11:27:06.475Z,18.33
2019-04-16T11:28:06.462Z,18.43
2019-04-16T11:29:06.447Z,18.50
2019-04-16T11:30:06.433Z,18.47
2019-04-16T11:31:06.471Z,18.35
2019-04-16T11:32:06.383Z,18.20
2019-04-16T11:33:06.394Z,18.28
2019-04-16T11:34:06.377Z,18.11
2019-04-16T11:35:06.374Z,18.19
2019-04-16T11:36:18.578Z,18.31
2019-04-16T11:37:09.022Z,18.33
2019-04-16T11:38:06.314Z,18.34
2019-04-16T11:39:06.343Z,18.23
2019-04-16T11:40:06.305Z,17.98
2019-04-16T11:41:06.303Z,18.04
2019-04-16T11:42:06.306Z,18.07
2019-04-16T11:43:06.272Z,18.31
2019-04-16T11:44:15.172Z,18.49
2019-04-16T11:45:07.272Z,18.55
2019-04-16T11:46:06.271Z,18.38
2019-04-16T11:47:06.232Z,18.35
2019-04-16T11:48:06.203Z,18.44
2019-04-16T11:49:06.226Z,18.58
2019-04-16T11:50:06.191Z,18.66
2019-04-16T11:51:06.193Z,18.53
2019-04-16T11:52:06.197Z,18.58
2019-04-16T11:53:06.178Z,18.59
2019-04-16T11:54:06.246Z,18.47
2019-04-16T11:55:06.124Z,18.75
2019-04-16T11:56:06.140Z,18.75
2019-04-16T11:57:06.161Z,18.45
2019-04-16T11:58:06.116Z,18.25
2019-04-16T11:59:06.080Z,18.33
2019-04-16T12:00:08.217Z,18.15
2019-04-16T12:01:06.070Z,18.10
2019-04-16T12:02:06.083Z,18.29
2019-04-16T12:03:06.069Z,18.47
2019-04-16T12:04:06.039Z,18.66
2019-04-16T12:05:06.099Z,18.78
2019-04-16T12:06:06.004Z,18.98
2019-04-16T12:07:06.423Z,18.92
2019-04-16T12:08:05.981Z,18.89
2019-04-16T12:09:05.970Z,18.99
2019-04-16T12:10:06.011Z,18.31
2019-04-16T12:11:06.224Z,18.28
2019-04-16T12:12:06.094Z,18.38
2019-04-16T12:13:05.941Z,18.37
2019-04-16T12:14:08.700Z,18.34
2019-04-16T12:15:05.924Z,18.22
2019-04-16T12:16:06.160Z,18.41
2019-04-16T12:17:05.915Z,18.60
2019-04-16T12:18:06.066Z,18.58
2019-04-16T12:19:06.126Z,18.59
2019-04-16T12:20:06.126Z,18.56
2019-04-16T12:21:05.981Z,18.66
2019-04-16T12:22:05.853Z,18.75
2019-04-16T12:23:05.973Z,18.86
2019-04-16T12:24:05.917Z,18.99
2019-04-16T12:25:05.840Z,18.89
2019-04-16T12:26:08.862Z,18.92
2019-04-16T12:27:05.789Z,18.90
2019-04-16T12:28:11.421Z,18.96
2019-04-16T12:29:06.858Z,19.07
2019-04-16T12:30:05.965Z,19.18
2019-04-16T12:31:05.910Z,19.11
2019-04-16T12:32:05.763Z,19.22
2019-04-16T12:33:08.766Z,19.02
2019-04-16T12:34:05.691Z,18.92
2019-04-16T12:35:05.722Z,18.63
2019-04-16T12:36:05.803Z,18.60
2019-04-16T12:37:05.823Z,18.58
2019-04-16T12:38:05.646Z,18.74
2019-04-16T12:39:05.647Z,18.89
2019-04-16T12:40:05.667Z,18.95
2019-04-16T12:41:05.630Z,18.78
2019-04-16T12:42:05.625Z,18.81
2019-04-16T12:43:05.633Z,18.99
2019-04-16T12:44:05.638Z,19.16
2019-04-16T12:45:08.543Z,19.27
2019-04-16T12:46:05.789Z,19.33
2019-04-16T12:47:05.726Z,19.27
2019-04-16T12:48:05.648Z,19.04
2019-04-16T12:49:05.552Z,18.90
2019-04-16T12:50:05.747Z,19.02
2019-04-16T12:51:05.541Z,19.00
2019-04-16T12:52:05.496Z,18.75
2019-04-16T12:53:05.497Z,18.81
2019-04-16T12:54:05.673Z,18.80
2019-04-16T12:55:05.464Z,18.90
2019-04-16T12:56:07.441Z,19.02
2019-04-16T12:57:05.569Z,18.86
2019-04-16T12:58:05.422Z,18.90
2019-04-16T12:59:05.411Z,19.11
2019-04-16T13:00:05.404Z,19.22
2019-04-16T13:01:05.413Z,19.26
2019-04-16T13:02:05.398Z,19.16
2019-04-16T13:03:05.367Z,19.08
2019-04-16T13:04:05.505Z,19.08
2019-04-16T13:05:05.342Z,19.09
2019-04-16T13:06:05.361Z,18.89